Stewart, Texas
Current Conditions -  °F | °C
As of 10:35 PM on Friday 19 Dec 2014 (Local Time) from KRFI Reporting Station
Overcast Overcast  
Wind Chill:   Ceiling: 400
Heat Index:   Visibility: 7mi
Dew Point:   Wind: 3mph
Humidity: 99%   Direction: 60°ENE
Pressure: 30.2"   Gusts: NA
Location:  32.1449°N, 94.7416°W
Report Text: KRFI 200435Z AUTO 06003KT 7SM OVC004 08/08 A3020 RMK AO2 T00800079
Loading
Personal Weather Stations






























Interactive Weather Map New forecast layout! Learn more

10-Day Weather Forecast

Advertisements
Track Severe Weather on mobile